createdAt,value
2022-12-06T00:01:32.223Z,67.19
2022-12-06T00:04:03.423Z,66.22
2022-12-06T00:06:34.094Z,67.11
2022-12-06T00:09:02.678Z,67.30
2022-12-06T00:11:33.801Z,67.18
2022-12-06T00:14:05.847Z,67.29
2022-12-06T00:16:35.758Z,67.25
2022-12-06T00:19:05.677Z,66.05
2022-12-06T00:21:36.177Z,66.96
2022-12-06T00:24:07.474Z,66.61
2022-12-06T00:26:38.405Z,66.53
2022-12-06T00:29:12.435Z,66.29
2022-12-06T00:31:41.024Z,66.50
2022-12-06T00:34:09.429Z,66.33
2022-12-06T00:36:40.594Z,65.90
2022-12-06T00:39:10.745Z,65.29
2022-12-06T00:41:39.720Z,65.60
2022-12-06T00:44:10.069Z,66.06
2022-12-06T00:46:39.378Z,66.23
2022-12-06T00:49:09.068Z,66.48
2022-12-06T00:51:38.739Z,66.16
2022-12-06T00:54:09.097Z,65.30
2022-12-06T00:56:37.829Z,65.86
2022-12-06T00:59:08.058Z,65.19
2022-12-06T01:01:37.042Z,65.88
2022-12-06T01:04:09.269Z,65.26
2022-12-06T01:06:38.644Z,65.18
2022-12-06T01:09:10.458Z,66.37
2022-12-06T01:11:39.181Z,65.91
2022-12-06T01:14:08.902Z,66.27
2022-12-06T01:16:36.999Z,65.90
2022-12-06T01:19:07.344Z,65.89
2022-12-06T01:21:35.860Z,65.57
2022-12-06T01:24:04.109Z,66.02
2022-12-06T01:26:36.948Z,66.16
2022-12-06T01:29:05.846Z,66.12
2022-12-06T01:31:38.772Z,66.12
2022-12-06T01:34:14.546Z,66.89
2022-12-06T01:36:42.713Z,67.13
2022-12-06T01:39:11.217Z,66.50
2022-12-06T01:41:40.528Z,66.44
2022-12-06T01:44:28.787Z,66.56
2022-12-06T01:46:58.312Z,65.83
2022-12-06T01:49:33.231Z,66.08
2022-12-06T01:52:06.748Z,66.72
2022-12-06T01:54:35.641Z,66.68
2022-12-06T01:57:07.934Z,66.85
2022-12-06T01:59:36.528Z,66.77
2022-12-06T02:02:11.767Z,66.20
2022-12-06T02:04:40.907Z,66.85
2022-12-06T02:07:09.625Z,66.66
2022-12-06T02:09:37.978Z,66.05
2022-12-06T02:12:13.176Z,67.01
2022-12-06T02:14:43.668Z,66.79
2022-12-06T02:17:29.405Z,66.49
2022-12-06T02:20:15.955Z,66.36
2022-12-06T02:23:27.530Z,66.90
2022-12-06T02:26:18.214Z,66.86
2022-12-06T02:29:34.203Z,66.17
2022-12-06T02:32:10.364Z,66.40
2022-12-06T02:34:46.490Z,66.91
2022-12-06T02:37:21.248Z,66.70
2022-12-06T02:39:55.982Z,66.12
2022-12-06T02:42:29.340Z,66.65
2022-12-06T02:45:02.708Z,66.06
2022-12-06T02:47:37.673Z,66.18
2022-12-06T02:50:11.981Z,66.92
2022-12-06T02:52:45.286Z,66.42
2022-12-06T02:55:16.040Z,66.17
2022-12-06T02:57:47.581Z,65.91
2022-12-06T03:00:38.999Z,65.86
2022-12-06T03:03:29.264Z,66.47
2022-12-06T03:06:17.574Z,66.44
2022-12-06T03:08:57.477Z,66.86
2022-12-06T03:11:30.744Z,66.85
2022-12-06T03:14:06.177Z,66.12
2022-12-06T03:16:43.652Z,65.93
2022-12-06T03:19:19.523Z,66.40
2022-12-06T03:21:55.876Z,66.35
2022-12-06T03:24:25.712Z,66.87
2022-12-06T03:26:55.950Z,66.64
2022-12-06T03:29:29.008Z,67.01
2022-12-06T03:32:01.549Z,66.46
2022-12-06T03:34:36.563Z,66.96
2022-12-06T03:37:08.879Z,66.47
2022-12-06T03:39:45.127Z,67.35
2022-12-06T03:42:13.808Z,66.61
2022-12-06T03:44:42.209Z,66.74
2022-12-06T03:47:16.544Z,66.51
2022-12-06T03:49:50.027Z,66.19
2022-12-06T03:52:18.147Z,66.28
2022-12-06T03:54:46.362Z,67.27
2022-12-06T03:57:14.496Z,66.67
2022-12-06T03:59:42.770Z,66.27
2022-12-06T04:02:10.910Z,66.51
2022-12-06T04:04:39.093Z,66.62
2022-12-06T04:07:08.992Z,65.90
2022-12-06T04:10:02.820Z,66.35
2022-12-06T04:12:50.041Z,66.64
2022-12-06T04:15:19.409Z,66.20
2022-12-06T04:18:16.501Z,66.47
2022-12-06T04:21:08.195Z,66.54
2022-12-06T04:23:40.973Z,67.19
2022-12-06T04:26:11.821Z,67.00
2022-12-06T04:28:57.986Z,67.00
2022-12-06T04:31:44.658Z,66.88
2022-12-06T04:34:30.577Z,66.35
2022-12-06T04:37:16.865Z,66.26
2022-12-06T04:39:46.423Z,66.55
2022-12-06T04:42:32.309Z,66.10
2022-12-06T04:45:01.003Z,66.23
2022-12-06T04:47:29.134Z,66.26
2022-12-06T04:49:57.332Z,66.57
2022-12-06T04:52:25.522Z,66.58
2022-12-06T04:54:54.887Z,65.98
2022-12-06T04:57:23.076Z,66.57
2022-12-06T04:59:51.176Z,66.31
2022-12-06T05:02:19.289Z,66.42
2022-12-06T05:04:50.131Z,67.03
2022-12-06T05:07:18.224Z,65.89
2022-12-06T05:09:46.332Z,66.40
2022-12-06T05:12:15.735Z,65.67
2022-12-06T05:14:43.840Z,66.65
2022-12-06T05:17:11.905Z,66.37
2022-12-06T05:19:40.078Z,65.88
2022-12-06T05:22:08.092Z,66.40
2022-12-06T05:24:36.853Z,66.54
2022-12-06T05:27:06.496Z,66.71
2022-12-06T05:29:35.941Z,66.38
2022-12-06T05:32:04.103Z,65.83
2022-12-06T05:34:32.252Z,66.45
2022-12-06T05:37:00.290Z,67.04
2022-12-06T05:39:29.276Z,66.12
2022-12-06T05:41:57.392Z,66.65
2022-12-06T05:44:25.388Z,66.15
2022-12-06T05:46:54.845Z,66.02
2022-12-06T05:49:22.983Z,66.02
2022-12-06T05:51:51.114Z,65.64
2022-12-06T05:54:20.400Z,66.10
2022-12-06T05:56:50.343Z,65.89
2022-12-06T05:59:18.762Z,66.63
2022-12-06T06:01:46.934Z,66.22
2022-12-06T06:04:16.363Z,66.06
2022-12-06T06:06:44.466Z,66.13
2022-12-06T06:09:12.582Z,65.88
2022-12-06T06:11:40.738Z,66.36
2022-12-06T06:14:08.827Z,65.73
2022-12-06T06:16:37.049Z,66.13
2022-12-06T06:19:05.183Z,65.65
2022-12-06T06:21:34.605Z,65.92
2022-12-06T06:24:02.928Z,66.48
2022-12-06T06:26:30.980Z,65.65
2022-12-06T06:28:59.020Z,66.17
2022-12-06T06:31:27.077Z,66.59
2022-12-06T06:33:55.138Z,65.92
2022-12-06T06:36:23.301Z,65.83
2022-12-06T06:38:52.824Z,65.68
2022-12-06T06:41:20.828Z,66.45
2022-12-06T06:43:48.928Z,65.78
2022-12-06T06:46:17.137Z,65.49
2022-12-06T06:48:45.307Z,65.93
2022-12-06T06:51:14.708Z,65.50
2022-12-06T06:53:42.849Z,66.48
2022-12-06T06:56:12.301Z,65.90
2022-12-06T06:58:40.465Z,65.68
2022-12-06T07:01:10.186Z,66.10
2022-12-06T07:03:38.449Z,66.02
2022-12-06T07:06:10.526Z,65.97
2022-12-06T07:08:41.457Z,66.33
2022-12-06T07:11:10.133Z,66.41
2022-12-06T07:13:45.728Z,66.20
2022-12-06T07:16:18.192Z,65.65
2022-12-06T07:18:47.439Z,65.80
2022-12-06T07:21:18.032Z,65.86
2022-12-06T07:23:46.522Z,66.04
2022-12-06T07:26:17.906Z,66.07
2022-12-06T07:28:49.562Z,65.81
2022-12-06T07:31:19.989Z,66.03
2022-12-06T07:33:49.868Z,66.22
2022-12-06T07:36:18.195Z,66.18
2022-12-06T07:38:50.447Z,65.95
2022-12-06T07:41:38.416Z,65.54
2022-12-06T07:44:35.144Z,65.89
2022-12-06T07:47:03.491Z,66.04
2022-12-06T07:49:31.610Z,66.20
2022-12-06T07:51:59.682Z,65.58
2022-12-06T07:54:28.002Z,65.39
2022-12-06T07:56:57.147Z,66.15
2022-12-06T07:59:27.107Z,65.63
2022-12-06T08:01:55.601Z,66.05
2022-12-06T08:04:23.792Z,65.58
2022-12-06T08:06:51.910Z,66.04
2022-12-06T08:09:19.990Z,65.75
2022-12-06T08:11:48.041Z,66.45
2022-12-06T08:14:16.220Z,66.35
2022-12-06T08:16:45.617Z,67.12
2022-12-06T08:19:13.679Z,66.65
2022-12-06T08:21:41.706Z,66.25
2022-12-06T08:24:10.009Z,66.54
2022-12-06T08:26:38.197Z,67.17
2022-12-06T08:29:06.256Z,66.46
2022-12-06T08:31:35.404Z,66.13
2022-12-06T08:34:05.442Z,66.32
2022-12-06T08:36:33.651Z,66.12
2022-12-06T08:39:02.047Z,65.67
2022-12-06T08:41:47.993Z,66.34
2022-12-06T08:44:19.849Z,66.04
2022-12-06T08:46:49.025Z,66.27
2022-12-06T08:49:19.232Z,65.89
2022-12-06T08:51:47.857Z,66.63
2022-12-06T08:54:19.431Z,66.55
2022-12-06T08:56:47.976Z,66.44
2022-12-06T08:59:16.424Z,66.54
2022-12-06T09:01:45.823Z,66.39
2022-12-06T09:04:13.985Z,66.71
2022-12-06T09:06:45.653Z,67.07
2022-12-06T09:09:16.600Z,66.23
2022-12-06T09:11:46.390Z,66.85
2022-12-06T09:14:21.468Z,66.95
2022-12-06T09:16:51.385Z,66.74
2022-12-06T09:19:20.321Z,67.08
2022-12-06T09:21:49.756Z,66.76
2022-12-06T09:24:19.816Z,66.73
2022-12-06T09:26:49.237Z,66.91
2022-12-06T09:29:18.463Z,66.97
2022-12-06T09:31:46.730Z,66.87
2022-12-06T09:34:16.885Z,66.85
2022-12-06T09:36:51.792Z,66.01
2022-12-06T09:39:24.605Z,66.28
2022-12-06T09:42:52.812Z,66.94
2022-12-06T09:45:47.420Z,66.25
2022-12-06T09:49:12.048Z,66.12
2022-12-06T09:52:00.985Z,66.45
2022-12-06T09:54:52.609Z,65.86
2022-12-06T09:57:32.739Z,66.16
2022-12-06T10:00:11.467Z,66.09
2022-12-06T10:03:28.058Z,66.50
2022-12-06T10:06:02.752Z,66.28
2022-12-06T10:09:00.214Z,66.98
2022-12-06T10:11:50.577Z,66.60
2022-12-06T10:14:35.870Z,67.19
2022-12-06T10:17:19.892Z,67.18
2022-12-06T10:20:04.601Z,66.94
2022-12-06T10:22:46.896Z,67.21
2022-12-06T10:25:22.302Z,67.49
2022-12-06T10:27:58.988Z,67.26
2022-12-06T10:30:27.237Z,67.14
2022-12-06T10:33:05.411Z,67.67
2022-12-06T10:35:43.475Z,67.34
2022-12-06T10:38:27.895Z,67.82
2022-12-06T10:41:11.004Z,67.27
2022-12-06T10:43:51.192Z,67.64
2022-12-06T10:46:45.865Z,67.17
2022-12-06T10:49:24.699Z,68.20
2022-12-06T10:52:01.617Z,67.93
2022-12-06T10:54:39.625Z,67.80
2022-12-06T10:57:20.097Z,68.37
2022-12-06T11:00:00.258Z,67.93
2022-12-06T11:02:41.094Z,67.80
2022-12-06T11:05:19.650Z,67.94
2022-12-06T11:07:54.228Z,68.06
2022-12-06T11:10:27.889Z,67.91
2022-12-06T11:13:03.184Z,68.03
2022-12-06T11:15:36.365Z,67.66
2022-12-06T11:18:12.364Z,67.24
2022-12-06T11:20:45.977Z,67.78
2022-12-06T11:23:23.511Z,67.86
2022-12-06T11:26:12.378Z,67.95
2022-12-06T11:28:44.724Z,67.89
2022-12-06T11:31:25.936Z,67.88
2022-12-06T11:33:54.218Z,67.72
2022-12-06T11:36:24.738Z,67.61
2022-12-06T11:38:53.281Z,67.85
2022-12-06T11:41:26.129Z,68.42
2022-12-06T11:43:56.587Z,67.80
2022-12-06T11:46:25.652Z,67.80
2022-12-06T11:48:54.495Z,67.63
2022-12-06T11:51:25.347Z,67.84
2022-12-06T11:54:05.171Z,68.09
2022-12-06T11:56:36.750Z,68.08
2022-12-06T11:59:25.743Z,68.42
2022-12-06T12:01:56.061Z,68.38
2022-12-06T12:04:31.238Z,68.70
2022-12-06T12:07:02.961Z,68.48
2022-12-06T12:09:36.258Z,68.12
2022-12-06T12:12:13.972Z,68.40
2022-12-06T12:14:51.038Z,68.51
2022-12-06T12:17:23.558Z,68.10
2022-12-06T12:19:57.877Z,68.40
2022-12-06T12:22:35.612Z,67.80
2022-12-06T12:25:22.782Z,67.84
2022-12-06T12:27:53.301Z,68.46
2022-12-06T12:30:32.621Z,68.46
2022-12-06T12:33:18.970Z,68.17
2022-12-06T12:35:50.274Z,68.27
2022-12-06T12:38:27.006Z,67.41
2022-12-06T12:40:59.377Z,68.13
2022-12-06T12:43:31.834Z,68.32
2022-12-06T12:46:17.811Z,67.62
2022-12-06T12:48:48.161Z,68.27
2022-12-06T12:51:30.217Z,67.92
2022-12-06T12:54:02.338Z,68.06
2022-12-06T12:56:34.063Z,68.73
2022-12-06T12:59:07.449Z,68.06
2022-12-06T13:01:44.899Z,68.03
2022-12-06T13:04:25.634Z,67.87
2022-12-06T13:07:00.232Z,67.37
2022-12-06T13:09:32.779Z,67.10
2022-12-06T13:12:07.461Z,67.68
2022-12-06T13:14:38.354Z,67.30
2022-12-06T13:17:11.498Z,67.60
2022-12-06T13:19:42.946Z,67.94
2022-12-06T13:22:20.040Z,67.73
2022-12-06T13:25:02.341Z,67.33
2022-12-06T13:27:37.078Z,67.76
2022-12-06T13:30:13.668Z,67.18
2022-12-06T13:32:47.948Z,67.29
2022-12-06T13:35:26.817Z,67.29
2022-12-06T13:37:57.737Z,67.22
2022-12-06T13:40:48.874Z,67.31
2022-12-06T13:43:57.298Z,67.29
2022-12-06T13:46:33.525Z,67.12
2022-12-06T13:49:48.636Z,67.39
2022-12-06T13:53:03.006Z,66.74
2022-12-06T13:55:59.360Z,66.57
2022-12-06T13:58:52.982Z,66.66
2022-12-06T14:01:42.577Z,67.07
2022-12-06T14:04:38.745Z,66.80
2022-12-06T14:09:42.608Z,66.22
2022-12-06T14:12:20.805Z,65.91
2022-12-06T14:14:58.018Z,65.75
2022-12-06T14:18:00.848Z,66.29
2022-12-06T14:20:23.171Z,66.19
2022-12-06T14:22:52.853Z,66.03
2022-12-06T14:25:25.386Z,66.32
2022-12-06T14:28:03.926Z,65.78
2022-12-06T14:30:32.308Z,65.63
2022-12-06T14:33:01.089Z,65.47
2022-12-06T14:35:35.624Z,65.75
2022-12-06T14:38:23.143Z,65.60
2022-12-06T14:41:11.791Z,66.01
2022-12-06T14:43:42.157Z,65.60
2022-12-06T14:46:14.612Z,65.19
2022-12-06T14:49:01.741Z,65.78
2022-12-06T14:51:38.568Z,65.04
2022-12-06T14:54:19.677Z,65.97
2022-12-06T14:56:49.250Z,65.28
2022-12-06T14:59:45.097Z,65.51
2022-12-06T15:02:23.791Z,65.82
2022-12-06T15:04:52.442Z,65.87
2022-12-06T15:07:41.662Z,65.88
2022-12-06T15:10:25.308Z,65.69
2022-12-06T15:12:58.006Z,65.90
2022-12-06T15:15:41.931Z,65.36
2022-12-06T15:18:22.698Z,65.55
2022-12-06T15:20:53.292Z,65.33
2022-12-06T15:23:38.203Z,64.78
2022-12-06T15:26:09.004Z,65.14
2022-12-06T15:28:38.471Z,64.84
2022-12-06T15:31:14.678Z,64.95
2022-12-06T15:33:42.920Z,64.35
2022-12-06T15:36:16.655Z,64.93
2022-12-06T15:38:44.894Z,64.92
2022-12-06T15:41:17.748Z,64.61
2022-12-06T15:43:47.747Z,65.06
2022-12-06T15:46:19.825Z,64.87
2022-12-06T15:48:48.418Z,64.64
2022-12-06T15:51:20.953Z,64.51
2022-12-06T15:53:51.092Z,65.13
2022-12-06T15:56:22.561Z,64.97
2022-12-06T15:58:52.787Z,65.11
2022-12-06T16:01:24.673Z,64.33
2022-12-06T16:03:55.094Z,64.75
2022-12-06T16:06:26.015Z,64.61
2022-12-06T16:08:54.832Z,64.28
2022-12-06T16:11:27.300Z,64.40
2022-12-06T16:13:56.726Z,64.50
2022-12-06T16:16:25.125Z,64.98
2022-12-06T16:18:53.887Z,63.99
2022-12-06T16:21:24.769Z,64.21
2022-12-06T16:24:16.497Z,64.35
2022-12-06T16:26:46.102Z,64.47
2022-12-06T16:29:20.370Z,64.76
2022-12-06T16:31:48.898Z,64.51
2022-12-06T16:34:17.306Z,64.22
2022-12-06T16:37:00.821Z,64.83
2022-12-06T16:39:31.354Z,65.22
2022-12-06T16:41:59.503Z,64.95
2022-12-06T16:44:29.065Z,64.21
2022-12-06T16:46:57.747Z,64.23
2022-12-06T16:52:17.158Z,64.29
2022-12-06T16:54:45.403Z,64.23
2022-12-06T16:57:14.717Z,64.25
2022-12-06T16:59:44.236Z,64.14
2022-12-06T17:02:26.886Z,64.49
2022-12-06T17:04:55.777Z,65.24
2022-12-06T17:07:24.408Z,64.43
2022-12-06T17:09:53.008Z,65.07
2022-12-06T17:12:21.366Z,64.94
2022-12-06T17:14:50.920Z,64.87
2022-12-06T17:17:22.548Z,64.27
2022-12-06T17:19:51.149Z,65.15
2022-12-06T17:22:19.966Z,65.31
2022-12-06T17:24:48.062Z,65.85
2022-12-06T17:27:17.066Z,65.24
2022-12-06T17:29:45.806Z,65.39
2022-12-06T17:32:15.564Z,64.88
2022-12-06T17:34:43.634Z,65.41
2022-12-06T17:37:12.123Z,65.21
2022-12-06T17:39:40.410Z,65.03
2022-12-06T17:42:26.427Z,65.04
2022-12-06T17:44:54.460Z,65.00
2022-12-06T17:47:23.959Z,65.02
2022-12-06T17:49:52.644Z,65.17
2022-12-06T17:52:20.692Z,65.82
2022-12-06T17:54:48.781Z,65.40
2022-12-06T17:57:18.344Z,65.16
2022-12-06T17:59:48.196Z,65.19
2022-12-06T18:02:19.746Z,65.26
2022-12-06T18:04:49.610Z,64.77
2022-12-06T18:07:18.630Z,65.23
2022-12-06T18:09:47.241Z,64.41
2022-12-06T18:12:17.127Z,64.56
2022-12-06T18:14:45.993Z,65.04
2022-12-06T18:17:14.258Z,65.03
2022-12-06T18:19:43.675Z,64.74
2022-12-06T18:22:13.097Z,65.39
2022-12-06T18:24:41.136Z,65.00
2022-12-06T18:27:09.294Z,65.21
2022-12-06T18:29:37.391Z,64.81
2022-12-06T18:32:06.382Z,64.75
2022-12-06T18:34:34.547Z,64.69
2022-12-06T18:37:02.677Z,65.16
2022-12-06T18:39:32.294Z,64.89
2022-12-06T18:42:00.995Z,65.12
2022-12-06T18:44:29.335Z,64.71
2022-12-06T18:46:57.348Z,64.52
2022-12-06T18:49:25.346Z,64.67
2022-12-06T18:51:53.431Z,65.02
2022-12-06T18:54:21.705Z,65.07
2022-12-06T18:56:51.114Z,65.11
2022-12-06T18:59:22.063Z,65.26
2022-12-06T19:01:54.152Z,65.17
2022-12-06T19:04:22.604Z,64.58
2022-12-06T19:06:50.678Z,64.81
2022-12-06T19:09:18.721Z,65.24
2022-12-06T19:11:47.879Z,65.35
2022-12-06T19:14:17.404Z,64.43
2022-12-06T19:16:47.756Z,64.96
2022-12-06T19:19:19.087Z,65.13
2022-12-06T19:21:48.991Z,65.27
2022-12-06T19:24:20.144Z,64.96
2022-12-06T19:26:49.525Z,64.85
2022-12-06T19:29:19.629Z,64.54
2022-12-06T19:31:47.696Z,64.78
2022-12-06T19:34:18.152Z,65.08
2022-12-06T19:36:46.912Z,64.71
2022-12-06T19:39:15.115Z,65.05
2022-12-06T19:42:01.355Z,64.97
2022-12-06T19:44:31.263Z,65.24
2022-12-06T19:46:59.716Z,64.88
2022-12-06T19:49:28.993Z,64.98
2022-12-06T19:51:57.584Z,64.78
2022-12-06T19:54:29.076Z,64.15
2022-12-06T19:57:00.046Z,64.23
2022-12-06T19:59:32.040Z,64.33
2022-12-06T20:02:00.239Z,64.56
2022-12-06T20:04:31.928Z,64.25
2022-12-06T20:07:00.598Z,64.44
2022-12-06T20:09:31.033Z,65.37
2022-12-06T20:12:02.155Z,63.83
2022-12-06T20:14:36.992Z,62.55
2022-12-06T20:17:08.183Z,61.58
2022-12-06T20:19:37.121Z,60.83
2022-12-06T20:22:05.422Z,60.22
2022-12-06T20:24:33.650Z,59.22
2022-12-06T20:27:01.801Z,59.38
2022-12-06T20:29:32.494Z,58.62
2022-12-06T20:32:01.632Z,58.67
2022-12-06T20:34:34.045Z,58.83
2022-12-06T20:37:06.905Z,58.31
2022-12-06T20:39:36.553Z,58.49
2022-12-06T20:42:06.798Z,58.43
2022-12-06T20:44:36.821Z,58.04
2022-12-06T20:47:05.030Z,58.08
2022-12-06T20:49:33.225Z,58.16
2022-12-06T20:52:02.711Z,58.02
2022-12-06T20:54:30.878Z,57.88
2022-12-06T20:56:58.994Z,57.98
2022-12-06T20:59:27.317Z,57.58
2022-12-06T21:01:56.990Z,57.70
2022-12-06T21:04:25.917Z,57.70
2022-12-06T21:06:54.243Z,57.40
2022-12-06T21:09:22.903Z,57.33
2022-12-06T21:11:51.208Z,57.93
2022-12-06T21:14:20.347Z,57.28
2022-12-06T21:16:48.525Z,57.60
2022-12-06T21:19:20.389Z,58.07
2022-12-06T21:21:53.114Z,58.03
2022-12-06T21:24:23.103Z,57.74
2022-12-06T21:26:51.213Z,58.15
2022-12-06T21:29:28.176Z,58.23
2022-12-06T21:31:58.209Z,57.97
2022-12-06T21:34:27.609Z,58.91
2022-12-06T21:36:55.677Z,58.47
2022-12-06T21:39:23.763Z,58.03
2022-12-06T21:41:53.046Z,58.61
2022-12-06T21:44:21.117Z,58.50
2022-12-06T21:46:53.194Z,58.77
2022-12-06T21:49:21.606Z,58.59
2022-12-06T21:51:55.060Z,58.51
2022-12-06T21:54:26.848Z,58.51
2022-12-06T21:56:54.839Z,58.66
2022-12-06T21:59:23.877Z,58.65
2022-12-06T22:01:52.194Z,59.45
2022-12-06T22:04:20.298Z,60.16
2022-12-06T22:06:49.684Z,60.37
2022-12-06T22:09:17.760Z,61.21
2022-12-06T22:11:45.985Z,61.47
2022-12-06T22:14:14.077Z,61.74
2022-12-06T22:16:42.178Z,62.34
2022-12-06T22:19:10.293Z,62.55
2022-12-06T22:21:38.780Z,62.84
2022-12-06T22:24:09.089Z,63.17
2022-12-06T22:26:37.797Z,63.02
2022-12-06T22:29:06.305Z,63.32
2022-12-06T22:31:36.220Z,63.95
2022-12-06T22:34:04.631Z,63.81
2022-12-06T22:36:33.837Z,63.85
2022-12-06T22:39:03.558Z,64.81
2022-12-06T22:41:33.293Z,65.12
2022-12-06T22:44:05.278Z,65.16
2022-12-06T22:46:36.423Z,64.59
2022-12-06T22:49:05.369Z,64.96
2022-12-06T22:51:35.942Z,65.52
2022-12-06T22:54:06.582Z,66.03
2022-12-06T22:56:35.977Z,65.24
2022-12-06T22:59:04.443Z,65.30
2022-12-06T23:01:35.361Z,65.58
2022-12-06T23:04:07.090Z,65.29
2022-12-06T23:06:36.700Z,65.50
2022-12-06T23:09:06.042Z,65.45
2022-12-06T23:11:37.483Z,65.24
2022-12-06T23:14:07.973Z,65.21
2022-12-06T23:16:36.685Z,65.48
2022-12-06T23:19:05.775Z,65.86
2022-12-06T23:21:36.103Z,66.17
2022-12-06T23:24:07.324Z,65.42
2022-12-06T23:26:39.326Z,65.70
2022-12-06T23:29:08.357Z,66.54
2022-12-06T23:31:39.242Z,66.48
2022-12-06T23:34:11.058Z,65.94
2022-12-06T23:36:39.605Z,66.80
2022-12-06T23:39:07.878Z,66.16
2022-12-06T23:41:38.037Z,66.21
2022-12-06T23:44:07.571Z,66.51
2022-12-06T23:46:38.709Z,66.25
2022-12-06T23:49:08.236Z,66.52
2022-12-06T23:51:39.144Z,66.28
2022-12-06T23:54:08.994Z,67.04
2022-12-06T23:56:41.187Z,67.12
2022-12-06T23:59:14.292Z,66.29
